Enter the Airport ICAO Code

Search by Airport or City

Current Weather

FIMP | Sir Seewoosagur Ramgoolam International Airport

Plaine Magnien, Mauritius

Last Update 34 Minutes Ago

Rain Shower

Temperature of 25 ēC

Light to Moderate Winds from NorthEast

Temperature

25 ēC

Dew Point Temperature

24 ēC

Relative Humidity

94.23 %

Wind Direction

NorthEast (030ē, Without Significant Variations)

Wind Velocity

9 km/h (05 kt)

Gusts

None

Visibility

Greater than 10 Kilometers

Sea Level Pressure

1016 hPa (Hectopascals)

Layers of Clouds

60% to 90% of Sky Covered from 457 mts (1500 ft) Above Ground Level.

30% to 60% of Sky Covered from 1524 mts (5000 ft) Above Ground Level.

METAR FIMP 022200Z 03005KT 9999 VCSH BKN015 SCT050 25/24 Q1016

Weather Forecast

FIMP | Sir Seewoosagur Ramgoolam International Airport

Plaine Magnien, Mauritius

Forecast valid for the next 25 Hours

From now on it is expected:

Partly Cloudy Sky

Moderate Winds from NorthEast

From now on it is expected 5 hours with intermittent periods of:

Light Rain

Light Winds from Variable Directions

Maximum Temperature

No Data

Minimum Temperature

No Data

TAF FIMP 021705Z 0218/0400 06010KT 9999 SCT018 PROB30 TEMPO 0220/0304 VRB02KT 7000 -SHRA BKN016